sensor_id;sensor_type;location;lat;lon;timestamp;pressure;altitude;pressure_sealevel;temperature;humidity
36834;BME280;48003;52.084;5.224;2023-01-27T00:00:14;102632.0;;;8.82;72.62
36834;BME280;48003;52.084;5.224;2023-01-27T00:01:51;102629.0;;;8.82;72.58
36834;BME280;48003;52.084;5.224;2023-01-27T00:05:04;102633.99999999999;;;8.81;72.5
36834;BME280;48003;52.084;5.224;2023-01-27T00:06:40;102632.0;;;8.76;72.19
36834;BME280;48003;52.084;5.224;2023-01-27T00:08:17;102632.0;;;8.73;72.02
36834;BME280;48003;52.084;5.224;2023-01-27T00:13:51;102625.0;;;8.77;71.83
36834;BME280;48003;52.084;5.224;2023-01-27T00:15:28;102627.0;;;8.72;71.77
36834;BME280;48003;52.084;5.224;2023-01-27T00:17:05;102627.0;;;8.73;71.64
36834;BME280;48003;52.084;5.224;2023-01-27T00:18:41;102628.0;;;8.78;71.5
36834;BME280;48003;52.084;5.224;2023-01-27T00:24:44;102627.0;;;8.71;71.58
36834;BME280;48003;52.084;5.224;2023-01-27T00:26:21;102628.0;;;8.68;71.5
36834;BME280;48003;52.084;5.224;2023-01-27T00:27:58;102623.0;;;8.65;71.66
36834;BME280;48003;52.084;5.224;2023-01-27T00:29:34;102623.0;;;8.72;71.62
36834;BME280;48003;52.084;5.224;2023-01-27T00:33:32;102623.0;;;8.71;71.53
36834;BME280;48003;52.084;5.224;2023-01-27T00:35:10;102620.0;;;8.68;71.28
36834;BME280;48003;52.084;5.224;2023-01-27T00:36:48;102617.0;;;8.67;71.27
36834;BME280;48003;52.084;5.224;2023-01-27T00:38:27;102616.00000000001;;;8.6;71.45
36834;BME280;48003;52.084;5.224;2023-01-27T00:40:04;102618.0;;;8.63;70.94
36834;BME280;48003;52.084;5.224;2023-01-27T00:41:41;102618.0;;;8.61;70.83
36834;BME280;48003;52.084;5.224;2023-01-27T00:45:57;102620.0;;;8.61;71.05
36834;BME280;48003;52.084;5.224;2023-01-27T00:47:34;102623.0;;;8.58;71.05
36834;BME280;48003;52.084;5.224;2023-01-27T00:49:12;102631.0;;;8.64;71.02
36834;BME280;48003;52.084;5.224;2023-01-27T00:50:48;102627.0;;;8.58;71.27
36834;BME280;48003;52.084;5.224;2023-01-27T00:52:24;102627.0;;;8.57;71.22
36834;BME280;48003;52.084;5.224;2023-01-27T00:55:39;102627.0;;;8.58;71.36
36834;BME280;48003;52.084;5.224;2023-01-27T00:57:16;102631.0;;;8.57;71.27
36834;BME280;48003;52.084;5.224;2023-01-27T00:58:52;102633.0;;;8.56;71.17
36834;BME280;48003;52.084;5.224;2023-01-27T01:00:28;102629.0;;;8.56;71.08
36834;BME280;48003;52.084;5.224;2023-01-27T01:03:42;102623.0;;;8.58;71.08
36834;BME280;48003;52.084;5.224;2023-01-27T01:05:18;102636.99999999999;;;8.59;71.06
36834;BME280;48003;52.084;5.224;2023-01-27T01:06:54;102636.99999999999;;;8.56;71.27
36834;BME280;48003;52.084;5.224;2023-01-27T01:11:46;102642.0;;;8.51;71.3
36834;BME280;48003;52.084;5.224;2023-01-27T01:13:22;102642.0;;;8.5;71.55
36834;BME280;48003;52.084;5.224;2023-01-27T01:16:34;102642.0;;;8.47;71.56
36834;BME280;48003;52.084;5.224;2023-01-27T01:18:10;102650.0;;;8.47;71.44
36834;BME280;48003;52.084;5.224;2023-01-27T01:19:47;102646.0;;;8.43;71.2
36834;BME280;48003;52.084;5.224;2023-01-27T01:21:23;102653.0;;;8.42;71.41
36834;BME280;48003;52.084;5.224;2023-01-27T01:24:36;102650.0;;;8.39;71.24
36834;BME280;48003;52.084;5.224;2023-01-27T01:26:14;102654.0;;;8.38;71.08
36834;BME280;48003;52.084;5.224;2023-01-27T01:27:51;102653.0;;;8.31;71.25
36834;BME280;48003;52.084;5.224;2023-01-27T01:31:05;102659.99999999999;;;8.34;71.14
36834;BME280;48003;52.084;5.224;2023-01-27T01:32:44;102658.99999999999;;;8.33;71.22
36834;BME280;48003;52.084;5.224;2023-01-27T01:34:21;102661.99999999999;;;8.24;71.36
36834;BME280;48003;52.084;5.224;2023-01-27T01:36:02;102655.0;;;8.25;71.45
36834;BME280;48003;52.084;5.224;2023-01-27T01:39:15;102658.99999999999;;;8.33;71.08
36834;BME280;48003;52.084;5.224;2023-01-27T01:40:51;102658.0;;;8.41;70.77
36834;BME280;48003;52.084;5.224;2023-01-27T01:42:46;102663.00000000001;;;8.39;70.81
36834;BME280;48003;52.084;5.224;2023-01-27T01:44:27;102658.99999999999;;;8.32;70.74
36834;BME280;48003;52.084;5.224;2023-01-27T01:47:41;102659.99999999999;;;8.32;70.97
36834;BME280;48003;52.084;5.224;2023-01-27T01:49:20;102654.0;;;8.2;70.94
36834;BME280;48003;52.084;5.224;2023-01-27T01:51:00;102665.00000000001;;;8.18;71.08
36834;BME280;48003;52.084;5.224;2023-01-27T01:52:38;102667.0;;;8.2;70.94
36834;BME280;48003;52.084;5.224;2023-01-27T01:55:55;102667.0;;;8.23;70.77
36834;BME280;48003;52.084;5.224;2023-01-27T01:57:34;102666.00000000001;;;8.23;70.8
36834;BME280;48003;52.084;5.224;2023-01-27T01:59:12;102658.99999999999;;;8.2;71.02
36834;BME280;48003;52.084;5.224;2023-01-27T02:02:28;102659.99999999999;;;8.25;70.8
36834;BME280;48003;52.084;5.224;2023-01-27T02:04:09;102663.00000000001;;;8.25;70.67
36834;BME280;48003;52.084;5.224;2023-01-27T02:05:50;102668.0;;;8.23;70.72
36834;BME280;48003;52.084;5.224;2023-01-27T02:07:32;102667.0;;;8.2;70.7
36834;BME280;48003;52.084;5.224;2023-01-27T02:10:48;102658.0;;;8.18;70.72
36834;BME280;48003;52.084;5.224;2023-01-27T02:12:25;102659.99999999999;;;8.17;70.63
36834;BME280;48003;52.084;5.224;2023-01-27T02:14:01;102667.0;;;8.24;70.52
36834;BME280;48003;52.084;5.224;2023-01-27T02:17:16;102668.0;;;8.28;70.66
36834;BME280;48003;52.084;5.224;2023-01-27T02:18:52;102670.0;;;8.27;70.44
36834;BME280;48003;52.084;5.224;2023-01-27T02:20:34;102672.0;;;8.27;70.64
36834;BME280;48003;52.084;5.224;2023-01-27T02:22:21;102673.0;;;8.23;70.77
36834;BME280;48003;52.084;5.224;2023-01-27T02:25:46;102674.0;;;8.22;70.88
36834;BME280;48003;52.084;5.224;2023-01-27T02:27:23;102668.0;;;8.16;70.69
36834;BME280;48003;52.084;5.224;2023-01-27T02:29:03;102671.0;;;8.09;70.69
36834;BME280;48003;52.084;5.224;2023-01-27T02:30:40;102669.0;;;8.14;70.61
36834;BME280;48003;52.084;5.224;2023-01-27T02:34:03;102669.0;;;8.07;70.72
36834;BME280;48003;52.084;5.224;2023-01-27T02:35:47;102678.0;;;8.09;70.88
36834;BME280;48003;52.084;5.224;2023-01-27T02:37:27;102674.0;;;8.11;70.72
36834;BME280;48003;52.084;5.224;2023-01-27T02:39:07;102673.0;;;8.09;70.63
36834;BME280;48003;52.084;5.224;2023-01-27T02:40:47;102678.0;;;8.06;70.72
36834;BME280;48003;52.084;5.224;2023-01-27T02:44:04;102682.0;;;7.99;70.67
36834;BME280;48003;52.084;5.224;2023-01-27T02:45:41;102684.99999999999;;;8.03;70.61
36834;BME280;48003;52.084;5.224;2023-01-27T02:47:17;102688.00000000001;;;7.98;70.44
36834;BME280;48003;52.084;5.224;2023-01-27T02:50:31;102690.00000000001;;;7.98;70.73
36834;BME280;48003;52.084;5.224;2023-01-27T02:52:07;102682.0;;;7.94;70.78
36834;BME280;48003;52.084;5.224;2023-01-27T02:53:44;102683.99999999999;;;7.97;70.75
36834;BME280;48003;52.084;5.224;2023-01-27T02:56:58;102688.00000000001;;;8.0;70.53
36834;BME280;48003;52.084;5.224;2023-01-27T02:58:34;102683.0;;;7.96;70.83
36834;BME280;48003;52.084;5.224;2023-01-27T03:00:12;102695.0;;;7.86;70.83
36834;BME280;48003;52.084;5.224;2023-01-27T03:01:49;102693.0;;;7.86;71.05
36834;BME280;48003;52.084;5.224;2023-01-27T03:05:01;102691.00000000001;;;7.87;70.67
36834;BME280;48003;52.084;5.224;2023-01-27T03:06:38;102701.0;;;7.83;70.67
36834;BME280;48003;52.084;5.224;2023-01-27T03:08:14;102698.0;;;7.81;70.77
36834;BME280;48003;52.084;5.224;2023-01-27T03:12:30;102699.0;;;7.77;70.87
36834;BME280;48003;52.084;5.224;2023-01-27T03:14:07;102708.0;;;7.74;70.91
36834;BME280;48003;52.084;5.224;2023-01-27T03:19:52;102705.0;;;7.63;71.45
36834;BME280;48003;52.084;5.224;2023-01-27T03:21:28;102713.00000000001;;;7.62;71.61
36834;BME280;48003;52.084;5.224;2023-01-27T03:23:05;102708.99999999999;;;7.64;71.47
36834;BME280;48003;52.084;5.224;2023-01-27T03:24:41;102719.0;;;7.67;71.53
36834;BME280;48003;52.084;5.224;2023-01-27T03:27:55;102716.00000000001;;;7.69;71.36
36834;BME280;48003;52.084;5.224;2023-01-27T03:30:04;102717.0;;;7.68;71.61
36834;BME280;48003;52.084;5.224;2023-01-27T03:31:41;102717.0;;;7.74;71.59
36834;BME280;48003;52.084;5.224;2023-01-27T03:33:17;102718.0;;;7.77;71.49
36834;BME280;48003;52.084;5.224;2023-01-27T03:47:33;102719.0;;;7.8;70.92
36834;BME280;48003;52.084;5.224;2023-01-27T03:49:09;102719.0;;;7.79;70.66
36834;BME280;48003;52.084;5.224;2023-01-27T03:50:55;102720.0;;;7.81;70.69
36834;BME280;48003;52.084;5.224;2023-01-27T03:52:32;102728.0;;;7.74;70.59
36834;BME280;48003;52.084;5.224;2023-01-27T03:54:09;102728.0;;;7.78;70.53
36834;BME280;48003;52.084;5.224;2023-01-27T03:57:22;102732.0;;;7.74;70.86
36834;BME280;48003;52.084;5.224;2023-01-27T03:58:59;102730.0;;;7.76;70.37
36834;BME280;48003;52.084;5.224;2023-01-27T04:00:35;102733.0;;;7.72;70.7
36834;BME280;48003;52.084;5.224;2023-01-27T04:06:53;102733.0;;;7.65;70.94
36834;BME280;48003;52.084;5.224;2023-01-27T04:08:29;102733.0;;;7.64;70.81
36834;BME280;48003;52.084;5.224;2023-01-27T04:10:06;102739.00000000001;;;7.74;70.53
36834;BME280;48003;52.084;5.224;2023-01-27T04:12:00;102734.99999999999;;;7.7;71.16
36834;BME280;48003;52.084;5.224;2023-01-27T04:13:38;102736.99999999999;;;7.66;70.55
36834;BME280;48003;52.084;5.224;2023-01-27T04:15:16;102738.00000000001;;;7.66;70.5
36834;BME280;48003;52.084;5.224;2023-01-27T04:18:32;102742.0;;;7.74;70.05
36834;BME280;48003;52.084;5.224;2023-01-27T04:20:10;102742.0;;;7.73;70.22
36834;BME280;48003;52.084;5.224;2023-01-27T04:21:46;102744.0;;;7.78;69.84
36834;BME280;48003;52.084;5.224;2023-01-27T04:23:23;102745.0;;;7.8;69.39
36834;BME280;48003;52.084;5.224;2023-01-27T04:26:35;102742.0;;;7.83;69.52
36834;BME280;48003;52.084;5.224;2023-01-27T04:28:12;102749.0;;;7.83;69.19
36834;BME280;48003;52.084;5.224;2023-01-27T04:29:48;102752.0;;;7.82;68.94
36834;BME280;48003;52.084;5.224;2023-01-27T04:33:03;102756.0;;;7.81;68.83
36834;BME280;48003;52.084;5.224;2023-01-27T04:34:40;102754.0;;;7.81;68.41
36834;BME280;48003;52.084;5.224;2023-01-27T04:36:17;102756.0;;;7.84;68.5
36834;BME280;48003;52.084;5.224;2023-01-27T04:39:30;102758.0;;;7.88;68.49
36834;BME280;48003;52.084;5.224;2023-01-27T04:41:07;102761.99999999999;;;7.85;68.73
36834;BME280;48003;52.084;5.224;2023-01-27T04:42:44;102761.99999999999;;;7.83;68.41
36834;BME280;48003;52.084;5.224;2023-01-27T04:44:20;102758.0;;;7.82;68.23
36834;BME280;48003;52.084;5.224;2023-01-27T04:47:32;102758.99999999999;;;7.87;68.22
36834;BME280;48003;52.084;5.224;2023-01-27T04:49:08;102761.99999999999;;;7.91;68.52
36834;BME280;48003;52.084;5.224;2023-01-27T04:50:45;102753.0;;;7.97;68.22
36834;BME280;48003;52.084;5.224;2023-01-27T04:53:58;102758.0;;;7.96;68.44
36834;BME280;48003;52.084;5.224;2023-01-27T04:55:34;102761.99999999999;;;7.94;68.25
36834;BME280;48003;52.084;5.224;2023-01-27T04:57:11;102766.00000000001;;;7.89;68.09
36834;BME280;48003;52.084;5.224;2023-01-27T05:00:24;102764.00000000001;;;7.92;68.42
36834;BME280;48003;52.084;5.224;2023-01-27T05:02:03;102766.00000000001;;;7.91;68.5
36834;BME280;48003;52.084;5.224;2023-01-27T05:03:39;102763.00000000001;;;7.94;68.05
36834;BME280;48003;52.084;5.224;2023-01-27T05:05:15;102753.0;;;7.89;68.44
36834;BME280;48003;52.084;5.224;2023-01-27T05:08:29;102766.00000000001;;;7.91;68.08
36834;BME280;48003;52.084;5.224;2023-01-27T05:10:07;102763.00000000001;;;7.89;67.83
36834;BME280;48003;52.084;5.224;2023-01-27T05:11:44;102765.00000000001;;;7.89;67.58
36834;BME280;48003;52.084;5.224;2023-01-27T05:14:56;102765.00000000001;;;7.89;67.66
36834;BME280;48003;52.084;5.224;2023-01-27T05:16:33;102766.00000000001;;;7.92;67.53
36834;BME280;48003;52.084;5.224;2023-01-27T05:18:09;102770.0;;;7.89;68.12
36834;BME280;48003;52.084;5.224;2023-01-27T05:19:45;102766.00000000001;;;7.86;67.99
36834;BME280;48003;52.084;5.224;2023-01-27T05:24:05;102772.0;;;7.88;67.69
36834;BME280;48003;52.084;5.224;2023-01-27T05:25:42;102773.0;;;7.89;67.7
36834;BME280;48003;52.084;5.224;2023-01-27T05:27:19;102778.0;;;7.96;67.52
36834;BME280;48003;52.084;5.224;2023-01-27T05:28:55;102783.99999999999;;;7.99;67.63
36834;BME280;48003;52.084;5.224;2023-01-27T05:30:33;102779.0;;;7.95;67.44
36834;BME280;48003;52.084;5.224;2023-01-27T05:33:47;102788.00000000001;;;7.98;67.53
36834;BME280;48003;52.084;5.224;2023-01-27T05:35:23;102783.99999999999;;;8.01;67.45
36834;BME280;48003;52.084;5.224;2023-01-27T05:37:00;102781.0;;;8.0;67.35
36834;BME280;48003;52.084;5.224;2023-01-27T05:38:36;102776.0;;;7.97;67.34
36834;BME280;48003;52.084;5.224;2023-01-27T05:41:49;102783.0;;;7.96;67.35
36834;BME280;48003;52.084;5.224;2023-01-27T05:43:26;102782.0;;;8.05;66.91
36834;BME280;48003;52.084;5.224;2023-01-27T05:45:03;102781.0;;;8.0;66.97
36834;BME280;48003;52.084;5.224;2023-01-27T05:48:17;102782.0;;;7.98;67.02
36834;BME280;48003;52.084;5.224;2023-01-27T05:49:53;102786.99999999999;;;7.95;67.3
36834;BME280;48003;52.084;5.224;2023-01-27T05:51:32;102784.99999999999;;;7.99;67.23
36834;BME280;48003;52.084;5.224;2023-01-27T05:54:44;102789.00000000001;;;7.97;67.52
36834;BME280;48003;52.084;5.224;2023-01-27T05:56:21;102788.00000000001;;;7.94;67.36
36834;BME280;48003;52.084;5.224;2023-01-27T05:57:58;102790.00000000001;;;7.92;67.34
36834;BME280;48003;52.084;5.224;2023-01-27T05:59:34;102802.0;;;7.97;67.1
36834;BME280;48003;52.084;5.224;2023-01-27T06:02:49;102799.0;;;8.03;66.8
36834;BME280;48003;52.084;5.224;2023-01-27T06:04:26;102795.0;;;8.02;66.7
36834;BME280;48003;52.084;5.224;2023-01-27T06:06:03;102804.0;;;7.97;66.33
36834;BME280;48003;52.084;5.224;2023-01-27T06:09:17;102799.0;;;8.03;66.22
36834;BME280;48003;52.084;5.224;2023-01-27T06:10:53;102801.0;;;7.98;66.56
36834;BME280;48003;52.084;5.224;2023-01-27T06:12:29;102799.0;;;7.95;66.58
36834;BME280;48003;52.084;5.224;2023-01-27T06:15:43;102803.0;;;7.97;66.44
36834;BME280;48003;52.084;5.224;2023-01-27T06:17:20;102802.0;;;7.97;66.19
36834;BME280;48003;52.084;5.224;2023-01-27T06:18:57;102807.0;;;8.05;66.02
36834;BME280;48003;52.084;5.224;2023-01-27T06:20:34;102813.00000000001;;;8.0;66.05
36834;BME280;48003;52.084;5.224;2023-01-27T06:23:46;102809.99999999999;;;8.02;65.84
36834;BME280;48003;52.084;5.224;2023-01-27T06:25:23;102815.00000000001;;;8.02;66.37
36834;BME280;48003;52.084;5.224;2023-01-27T06:26:59;102821.0;;;7.91;66.02
36834;BME280;48003;52.084;5.224;2023-01-27T06:30:13;102821.0;;;7.9;66.19
36834;BME280;48003;52.084;5.224;2023-01-27T06:31:49;102821.0;;;7.91;65.94
36834;BME280;48003;52.084;5.224;2023-01-27T06:33:25;102830.0;;;7.9;66.11
36834;BME280;48003;52.084;5.224;2023-01-27T06:36:39;102826.0;;;7.87;66.03
36834;BME280;48003;52.084;5.224;2023-01-27T06:38:15;102828.0;;;7.89;65.91
36834;BME280;48003;52.084;5.224;2023-01-27T06:39:52;102833.99999999999;;;7.86;65.69
36834;BME280;48003;52.084;5.224;2023-01-27T06:41:28;102836.99999999999;;;7.88;65.99
36834;BME280;48003;52.084;5.224;2023-01-27T06:44:46;102836.99999999999;;;7.86;65.83
36834;BME280;48003;52.084;5.224;2023-01-27T06:46:23;102833.0;;;7.87;65.77
36834;BME280;48003;52.084;5.224;2023-01-27T06:48:00;102833.99999999999;;;7.9;65.02
36834;BME280;48003;52.084;5.224;2023-01-27T06:51:12;102833.99999999999;;;7.92;65.22
36834;BME280;48003;52.084;5.224;2023-01-27T06:52:50;102831.0;;;7.92;64.83
36834;BME280;48003;52.084;5.224;2023-01-27T06:54:27;102831.0;;;7.91;64.8
36834;BME280;48003;52.084;5.224;2023-01-27T06:56:04;102827.0;;;7.86;64.41
36834;BME280;48003;52.084;5.224;2023-01-27T06:59:17;102829.0;;;7.83;64.38
36834;BME280;48003;52.084;5.224;2023-01-27T07:00:53;102830.0;;;7.84;64.35
36834;BME280;48003;52.084;5.224;2023-01-27T07:02:30;102828.0;;;7.83;64.56
36834;BME280;48003;52.084;5.224;2023-01-27T07:05:42;102829.0;;;7.81;64.41
36834;BME280;48003;52.084;5.224;2023-01-27T07:07:19;102833.0;;;7.81;64.16
36834;BME280;48003;52.084;5.224;2023-01-27T07:08:55;102833.99999999999;;;7.82;64.19
36834;BME280;48003;52.084;5.224;2023-01-27T07:12:07;102836.99999999999;;;7.81;64.3
36834;BME280;48003;52.084;5.224;2023-01-27T07:13:44;102834.99999999999;;;7.81;64.02
36834;BME280;48003;52.084;5.224;2023-01-27T07:15:20;102838.00000000001;;;7.76;63.75
36834;BME280;48003;52.084;5.224;2023-01-27T07:16:56;102842.0;;;7.8;63.47
36834;BME280;48003;52.084;5.224;2023-01-27T07:20:11;102842.0;;;7.74;63.5
36834;BME280;48003;52.084;5.224;2023-01-27T07:21:48;102841.00000000001;;;7.79;63.11
36834;BME280;48003;52.084;5.224;2023-01-27T07:23:24;102842.0;;;7.78;63.27
36834;BME280;48003;52.084;5.224;2023-01-27T07:26:37;102846.0;;;7.85;63.5
36834;BME280;48003;52.084;5.224;2023-01-27T07:28:13;102847.0;;;7.84;63.28
36834;BME280;48003;52.084;5.224;2023-01-27T07:29:49;102844.0;;;7.81;63.2
36834;BME280;48003;52.084;5.224;2023-01-27T07:33:03;102847.0;;;7.81;63.45
36834;BME280;48003;52.084;5.224;2023-01-27T07:34:40;102844.0;;;7.76;62.58
36834;BME280;48003;52.084;5.224;2023-01-27T07:36:16;102853.0;;;7.72;61.99
36834;BME280;48003;52.084;5.224;2023-01-27T07:37:55;102854.0;;;7.69;62.15
36834;BME280;48003;52.084;5.224;2023-01-27T07:41:09;102855.0;;;7.69;62.29
36834;BME280;48003;52.084;5.224;2023-01-27T07:42:45;102854.0;;;7.63;63.24
36834;BME280;48003;52.084;5.224;2023-01-27T07:44:21;102852.0;;;7.61;62.62
36834;BME280;48003;52.084;5.224;2023-01-27T07:47:34;102856.0;;;7.63;62.89
36834;BME280;48003;52.084;5.224;2023-01-27T07:49:11;102855.0;;;7.65;63.04
36834;BME280;48003;52.084;5.224;2023-01-27T07:50:47;102865.00000000001;;;7.56;62.99
36834;BME280;48003;52.084;5.224;2023-01-27T07:54:01;102867.0;;;7.6;63.12
36834;BME280;48003;52.084;5.224;2023-01-27T07:55:39;102867.0;;;7.54;63.01
36834;BME280;48003;52.084;5.224;2023-01-27T07:57:16;102867.0;;;7.6;62.68
36834;BME280;48003;52.084;5.224;2023-01-27T07:58:52;102870.0;;;7.59;62.66
36834;BME280;48003;52.084;5.224;2023-01-27T08:02:08;102878.0;;;7.64;62.54
36834;BME280;48003;52.084;5.224;2023-01-27T08:03:44;102870.0;;;7.62;63.46
36834;BME280;48003;52.084;5.224;2023-01-27T08:05:20;102878.0;;;7.56;62.91
36834;BME280;48003;52.084;5.224;2023-01-27T08:08:34;102886.99999999999;;;7.56;62.72
36834;BME280;48003;52.084;5.224;2023-01-27T08:10:11;102888.00000000001;;;7.61;62.75
36834;BME280;48003;52.084;5.224;2023-01-27T08:11:47;102883.99999999999;;;7.59;62.79
36834;BME280;48003;52.084;5.224;2023-01-27T08:13:23;102882.0;;;7.62;63.12
36834;BME280;48003;52.084;5.224;2023-01-27T08:16:36;102875.0;;;7.58;63.05
36834;BME280;48003;52.084;5.224;2023-01-27T08:18:12;102879.0;;;7.6;63.2
36834;BME280;48003;52.084;5.224;2023-01-27T08:19:51;102878.0;;;7.59;63.17
36834;BME280;48003;52.084;5.224;2023-01-27T08:23:08;102878.0;;;7.6;63.05
36834;BME280;48003;52.084;5.224;2023-01-27T08:24:44;102880.0;;;7.47;63.31
36834;BME280;48003;52.084;5.224;2023-01-27T08:26:20;102877.0;;;7.51;63.24
36834;BME280;48003;52.084;5.224;2023-01-27T08:29:32;102878.0;;;7.47;63.45
36834;BME280;48003;52.084;5.224;2023-01-27T08:31:10;102881.0;;;7.42;63.5
36834;BME280;48003;52.084;5.224;2023-01-27T08:32:48;102883.0;;;7.48;63.45
36834;BME280;48003;52.084;5.224;2023-01-27T08:34:25;102886.99999999999;;;7.45;63.54
36834;BME280;48003;52.084;5.224;2023-01-27T08:37:40;102890.00000000001;;;7.41;63.75
36834;BME280;48003;52.084;5.224;2023-01-27T08:39:16;102892.0;;;7.43;63.82
36834;BME280;48003;52.084;5.224;2023-01-27T08:40:52;102889.00000000001;;;7.39;63.97
36834;BME280;48003;52.084;5.224;2023-01-27T08:44:05;102892.0;;;7.36;64.22
36834;BME280;48003;52.084;5.224;2023-01-27T08:45:42;102893.0;;;7.42;64.33
36834;BME280;48003;52.084;5.224;2023-01-27T08:47:18;102892.0;;;7.4;64.14
36834;BME280;48003;52.084;5.224;2023-01-27T08:50:31;102898.0;;;7.41;64.38
36834;BME280;48003;52.084;5.224;2023-01-27T08:52:07;102897.0;;;7.39;64.27
36834;BME280;48003;52.084;5.224;2023-01-27T08:53:44;102896.0;;;7.34;64.3
36834;BME280;48003;52.084;5.224;2023-01-27T08:55:21;102897.0;;;7.35;64.25
36834;BME280;48003;52.084;5.224;2023-01-27T08:58:33;102900.0;;;7.34;64.44
36834;BME280;48003;52.084;5.224;2023-01-27T09:00:11;102894.0;;;7.41;64.23
36834;BME280;48003;52.084;5.224;2023-01-27T09:01:47;102895.0;;;7.46;64.13
36834;BME280;48003;52.084;5.224;2023-01-27T09:05:03;102902.0;;;7.47;63.95
36834;BME280;48003;52.084;5.224;2023-01-27T09:06:40;102901.0;;;7.41;64.22
36834;BME280;48003;52.084;5.224;2023-01-27T09:08:16;102902.0;;;7.45;64.16
36834;BME280;48003;52.084;5.224;2023-01-27T09:09:52;102915.00000000001;;;7.49;64.73
36834;BME280;48003;52.084;5.224;2023-01-27T09:13:06;102919.0;;;7.5;64.27
36834;BME280;48003;52.084;5.224;2023-01-27T09:14:43;102921.0;;;7.55;63.93
36834;BME280;48003;52.084;5.224;2023-01-27T09:16:20;102929.0;;;7.6;64.03
36834;BME280;48003;52.084;5.224;2023-01-27T09:19:32;102928.0;;;7.57;63.75
36834;BME280;48003;52.084;5.224;2023-01-27T09:21:08;102928.0;;;7.6;64.16
36834;BME280;48003;52.084;5.224;2023-01-27T09:22:45;102925.0;;;7.63;64.19
36834;BME280;48003;52.084;5.224;2023-01-27T09:25:57;102925.0;;;7.68;64.19
36834;BME280;48003;52.084;5.224;2023-01-27T09:27:34;102927.0;;;7.71;63.81
36834;BME280;48003;52.084;5.224;2023-01-27T09:29:10;102923.0;;;7.8;64.06
36834;BME280;48003;52.084;5.224;2023-01-27T09:32:23;102931.0;;;7.89;63.37
36834;BME280;48003;52.084;5.224;2023-01-27T09:33:59;102931.0;;;7.84;63.29
36834;BME280;48003;52.084;5.224;2023-01-27T09:35:38;102930.0;;;7.92;63.53
36834;BME280;48003;52.084;5.224;2023-01-27T09:37:18;102931.0;;;7.9;63.47
36834;BME280;48003;52.084;5.224;2023-01-27T09:40:46;102929.0;;;8.05;63.31
36834;BME280;48003;52.084;5.224;2023-01-27T09:42:46;102928.0;;;8.07;63.1
36834;BME280;48003;52.084;5.224;2023-01-27T09:48:28;102932.0;;;8.09;63.01
36834;BME280;48003;52.084;5.224;2023-01-27T09:50:30;102927.0;;;8.1;63.07
36834;BME280;48003;52.084;5.224;2023-01-27T09:52:36;102930.0;;;8.08;63.2
36834;BME280;48003;52.084;5.224;2023-01-27T09:54:28;102931.0;;;8.1;63.29
36834;BME280;48003;52.084;5.224;2023-01-27T09:56:34;102924.0;;;8.1;63.49
36834;BME280;48003;52.084;5.224;2023-01-27T09:58:54;102929.0;;;8.13;63.95
36834;BME280;48003;52.084;5.224;2023-01-27T10:00:53;102926.0;;;8.14;64.22
36834;BME280;48003;52.084;5.224;2023-01-27T10:02:54;102925.0;;;8.22;64.14
36834;BME280;48003;52.084;5.224;2023-01-27T10:04:54;102930.0;;;8.28;63.87
36834;BME280;48003;52.084;5.224;2023-01-27T10:07:51;102924.0;;;8.38;63.99
36834;BME280;48003;52.084;5.224;2023-01-27T10:11:17;102925.0;;;8.38;64.0
36834;BME280;48003;52.084;5.224;2023-01-27T10:13:04;102925.0;;;8.4;63.7
36834;BME280;48003;52.084;5.224;2023-01-27T10:14:55;102929.0;;;8.45;63.31
36834;BME280;48003;52.084;5.224;2023-01-27T10:18:50;102931.0;;;8.48;63.43
36834;BME280;48003;52.084;5.224;2023-01-27T10:20:41;102933.0;;;8.5;63.58
36834;BME280;48003;52.084;5.224;2023-01-27T10:22:29;102936.99999999999;;;8.53;63.16
36834;BME280;48003;52.084;5.224;2023-01-27T10:24:20;102942.0;;;8.48;63.39
36834;BME280;48003;52.084;5.224;2023-01-27T10:26:12;102942.0;;;8.55;63.41
36834;BME280;48003;52.084;5.224;2023-01-27T10:27:56;102942.0;;;8.49;63.05
36834;BME280;48003;52.084;5.224;2023-01-27T10:29:38;102942.0;;;8.42;63.48
36834;BME280;48003;52.084;5.224;2023-01-27T10:33:11;102942.0;;;8.47;62.86
36834;BME280;48003;52.084;5.224;2023-01-27T10:35:03;102945.0;;;8.4;63.27
36834;BME280;48003;52.084;5.224;2023-01-27T10:36:47;102949.0;;;8.39;63.62
36834;BME280;48003;52.084;5.224;2023-01-27T10:38:36;102951.0;;;8.42;63.91
36834;BME280;48003;52.084;5.224;2023-01-27T10:40:19;102951.0;;;8.45;64.16
36834;BME280;48003;52.084;5.224;2023-01-27T10:42:07;102945.0;;;8.41;63.8
36834;BME280;48003;52.084;5.224;2023-01-27T10:45:49;102948.0;;;8.4;63.54
36834;BME280;48003;52.084;5.224;2023-01-27T10:47:39;102947.0;;;8.43;64.03
36834;BME280;48003;52.084;5.224;2023-01-27T10:49:28;102946.0;;;8.53;63.87
36834;BME280;48003;52.084;5.224;2023-01-27T10:51:09;102950.0;;;8.56;63.98
36834;BME280;48003;52.084;5.224;2023-01-27T10:52:53;102953.0;;;8.52;63.75
36834;BME280;48003;52.084;5.224;2023-01-27T10:54:42;102951.0;;;8.51;63.74
36834;BME280;48003;52.084;5.224;2023-01-27T10:58:14;102952.0;;;8.53;63.35
36834;BME280;48003;52.084;5.224;2023-01-27T11:00:01;102951.0;;;8.48;63.08
36834;BME280;48003;52.084;5.224;2023-01-27T11:01:45;102948.0;;;8.42;63.15
36834;BME280;48003;52.084;5.224;2023-01-27T11:03:25;102947.0;;;8.43;63.52
36834;BME280;48003;52.084;5.224;2023-01-27T11:05:08;102943.0;;;8.42;63.7
36834;BME280;48003;52.084;5.224;2023-01-27T11:08:30;102949.0;;;8.4;63.61
36834;BME280;48003;52.084;5.224;2023-01-27T11:10:16;102942.0;;;8.43;63.52
36834;BME280;48003;52.084;5.224;2023-01-27T11:11:55;102942.0;;;8.47;63.56
36834;BME280;48003;52.084;5.224;2023-01-27T11:13:34;102940.00000000001;;;8.52;63.49
36834;BME280;48003;52.084;5.224;2023-01-27T11:17:02;102934.99999999999;;;8.56;63.78
36834;BME280;48003;52.084;5.224;2023-01-27T11:18:40;102939.00000000001;;;8.61;63.74
36834;BME280;48003;52.084;5.224;2023-01-27T11:20:26;102938.00000000001;;;8.65;63.89
36834;BME280;48003;52.084;5.224;2023-01-27T11:22:15;102933.0;;;8.52;63.33